Time;durP1;ratioP1;P1;durP2;ratioP2;P2;SDS_P1;SDS_P2;PMS_P1;PMS_P2;Temp;Humidity;BMP_temperature;BMP_pressure;BME280_temperature;BME280_humidity;BME280_pressure;Samples;Min_cycle;Max_cycle;Signal;HPM_P1;HPM_P2
2022/08/07 00:01:19;;;;;;;2.65;1.88;;;;;;;;;;5058901;28;20028;-78
2022/08/07 00:03:46;;;;;;;3.75;1.85;;;;;;;;;;5061728;28;20035;-81
2022/08/07 00:06:11;;;;;;;3.92;1.80;;;;;;;;;;5061532;28;20031;-78
2022/08/07 00:08:37;;;;;;;3.03;1.90;;;;;;;;;;5061810;28;20027;-79
2022/08/07 00:11:04;;;;;;;3.60;2.13;;;;;;;;;;5060136;28;20155;-75
2022/08/07 00:13:30;;;;;;;3.45;1.88;;;;;;;;;;5063583;28;20032;-79
2022/08/07 00:15:56;;;;;;;2.92;1.77;;;;;;;;;;5057146;28;20028;-77
2022/08/07 00:18:25;;;;;;;3.35;1.73;;;;;;;;;;5058396;28;20081;-80
2022/08/07 00:20:56;;;;;;;3.45;1.98;;;;;;;;;;5064106;28;20472;-79
2022/08/07 00:23:22;;;;;;;2.70;1.80;;;;;;;;;;5068181;28;20020;-81
2022/08/07 00:25:48;;;;;;;3.03;1.98;;;;;;;;;;5054006;28;20145;-75
2022/08/07 00:28:14;;;;;;;3.08;1.92;;;;;;;;;;5063174;28;20032;-79
2022/08/07 00:30:39;;;;;;;3.67;2.03;;;;;;;;;;5060306;28;20623;-74
2022/08/07 00:33:04;;;;;;;4.35;2.20;;;;;;;;;;5064152;28;20043;-77
2022/08/07 00:35:30;;;;;;;3.10;2.10;;;;;;;;;;5060828;28;20397;-80
2022/08/07 00:37:55;;;;;;;3.65;2.10;;;;;;;;;;5054950;28;20116;-76
2022/08/07 00:40:21;;;;;;;4.70;2.65;;;;;;;;;;5061354;28;20028;-79
2022/08/07 00:42:46;;;;;;;4.63;2.38;;;;;;;;;;5058722;28;20036;-77
2022/08/07 00:45:12;;;;;;;4.13;2.63;;;;;;;;;;5063437;28;20025;-80
2022/08/07 00:47:38;;;;;;;4.68;2.50;;;;;;;;;;5063653;28;20023;-81
2022/08/07 00:50:04;;;;;;;5.88;2.58;;;;;;;;;;5055025;28;20032;-78
2022/08/07 00:52:30;;;;;;;5.93;2.70;;;;;;;;;;5062645;28;20486;-79
2022/08/07 00:54:55;;;;;;;5.20;2.70;;;;;;;;;;5061075;28;20020;-75
2022/08/07 00:57:22;;;;;;;4.35;2.42;;;;;;;;;;5063247;28;20431;-79
2022/08/07 00:59:48;;;;;;;5.70;2.80;;;;;;;;;;5055691;28;20036;-78
2022/08/07 01:02:13;;;;;;;4.07;2.50;;;;;;;;;;5055632;28;20085;-78
2022/08/07 01:04:39;;;;;;;5.32;2.80;;;;;;;;;;5057441;28;20060;-79
2022/08/07 01:07:05;;;;;;;4.82;2.78;;;;;;;;;;5059493;28;20032;-82
2022/08/07 01:09:31;;;;;;;4.78;2.58;;;;;;;;;;5060548;28;20020;-75
2022/08/07 01:11:56;;;;;;;4.10;2.50;;;;;;;;;;5061192;28;20028;-75
2022/08/07 01:14:23;;;;;;;4.90;2.40;;;;;;;;;;5061110;28;20035;-75
2022/08/07 01:16:49;;;;;;;3.72;2.30;;;;;;;;;;5060547;28;20039;-74
2022/08/07 01:19:19;;;;;;;5.28;2.42;;;;;;;;;;5063624;28;20032;-76
2022/08/07 01:21:46;;;;;;;4.18;2.60;;;;;;;;;;5078204;28;20032;-75
2022/08/07 01:24:12;;;;;;;3.70;2.30;;;;;;;;;;5059748;28;20040;-80
2022/08/07 01:26:38;;;;;;;4.35;2.60;;;;;;;;;;5064116;28;20107;-75
2022/08/07 01:29:04;;;;;;;4.00;2.72;;;;;;;;;;5069208;28;20108;-81
2022/08/07 01:31:32;;;;;;;5.95;3.03;;;;;;;;;;5070917;28;20215;-80
2022/08/07 01:33:59;;;;;;;3.75;2.40;;;;;;;;;;5066739;28;20135;-77
2022/08/07 01:36:25;;;;;;;4.13;2.50;;;;;;;;;;5065225;28;20025;-74
2022/08/07 01:38:51;;;;;;;3.85;2.42;;;;;;;;;;5063951;28;20025;-81
2022/08/07 01:41:19;;;;;;;3.80;2.40;;;;;;;;;;5069292;28;20451;-77
2022/08/07 01:43:45;;;;;;;4.88;2.67;;;;;;;;;;5070005;28;20499;-75
2022/08/07 01:46:10;;;;;;;3.67;2.47;;;;;;;;;;5066282;28;20563;-75
2022/08/07 01:48:37;;;;;;;3.53;2.30;;;;;;;;;;5065033;28;20115;-74
2022/08/07 01:51:08;;;;;;;3.25;2.30;;;;;;;;;;5059912;28;20025;-76
2022/08/07 01:53:37;;;;;;;3.38;2.30;;;;;;;;;;5061083;28;20032;-81
2022/08/07 01:56:12;;;;;;;3.75;2.40;;;;;;;;;;5063876;28;20393;-79
2022/08/07 01:58:42;;;;;;;3.58;2.20;;;;;;;;;;5062233;28;20056;-75
2022/08/07 02:01:12;;;;;;;4.35;2.60;;;;;;;;;;5063487;28;20032;-77
2022/08/07 02:03:42;;;;;;;3.58;2.47;;;;;;;;;;5062749;28;20039;-79
2022/08/07 02:06:12;;;;;;;3.95;2.40;;;;;;;;;;5063682;28;20031;-78
2022/08/07 02:08:40;;;;;;;4.15;2.63;;;;;;;;;;5066568;28;20028;-76
2022/08/07 02:11:07;;;;;;;4.05;2.60;;;;;;;;;;5084031;28;20024;-78
2022/08/07 02:13:35;;;;;;;5.15;2.20;;;;;;;;;;5059946;28;20039;-76
2022/08/07 02:16:03;;;;;;;4.38;2.58;;;;;;;;;;5064921;28;20119;-82
2022/08/07 02:18:31;;;;;;;4.30;2.50;;;;;;;;;;5061601;28;20028;-76
2022/08/07 02:20:59;;;;;;;4.10;2.60;;;;;;;;;;5065933;28;20036;-78
2022/08/07 02:23:25;;;;;;;3.95;2.75;;;;;;;;;;5062327;28;20028;-79
2022/08/07 02:25:53;;;;;;;5.28;2.55;;;;;;;;;;5057886;28;20032;-79
2022/08/07 02:28:20;;;;;;;4.07;2.53;;;;;;;;;;5063960;28;20021;-76
2022/08/07 02:30:47;;;;;;;4.05;2.53;;;;;;;;;;5056825;28;20384;-79
2022/08/07 02:33:14;;;;;;;3.50;2.50;;;;;;;;;;5061865;28;20049;-78
2022/08/07 02:35:40;;;;;;;4.28;2.45;;;;;;;;;;5061821;28;20059;-76
2022/08/07 02:38:07;;;;;;;5.40;2.83;;;;;;;;;;5055764;28;20060;-76
2022/08/07 02:40:34;;;;;;;4.40;2.25;;;;;;;;;;5063799;28;20031;-76
2022/08/07 02:43:00;;;;;;;4.40;2.78;;;;;;;;;;5060867;28;20021;-75
2022/08/07 02:45:29;;;;;;;4.40;2.55;;;;;;;;;;5060985;28;20024;-77
2022/08/07 02:47:55;;;;;;;4.00;2.65;;;;;;;;;;5060271;28;20081;-79
2022/08/07 02:50:20;;;;;;;3.50;2.45;;;;;;;;;;5060556;28;20459;-75
2022/08/07 02:52:56;;;;;;;3.90;2.63;;;;;;;;;;5060350;28;20047;-76
2022/08/07 02:55:26;;;;;;;4.03;2.45;;;;;;;;;;5063689;28;20469;-80
2022/08/07 02:57:54;;;;;;;4.43;2.55;;;;;;;;;;5065190;28;20401;-79
2022/08/07 03:00:21;;;;;;;4.10;2.50;;;;;;;;;;5060499;28;20078;-80
2022/08/07 03:02:48;;;;;;;3.90;2.50;;;;;;;;;;5057587;28;20028;-82
2022/08/07 03:05:15;;;;;;;3.70;2.70;;;;;;;;;;5063670;28;20098;-76
2022/08/07 03:07:43;;;;;;;4.13;2.83;;;;;;;;;;5062619;28;20536;-75
2022/08/07 03:10:09;;;;;;;4.15;2.85;;;;;;;;;;5060301;28;20051;-75
2022/08/07 03:12:36;;;;;;;4.00;2.60;;;;;;;;;;5065036;28;20432;-77
2022/08/07 03:15:03;;;;;;;3.88;2.75;;;;;;;;;;5062767;28;20024;-82
2022/08/07 03:17:29;;;;;;;3.38;2.47;;;;;;;;;;5063024;28;20399;-76
2022/08/07 03:19:55;;;;;;;4.10;2.80;;;;;;;;;;5065964;28;20031;-76
2022/08/07 03:22:23;;;;;;;4.50;2.90;;;;;;;;;;5062003;28;20383;-81
2022/08/07 03:24:48;;;;;;;5.50;2.78;;;;;;;;;;5059109;28;20029;-77
2022/08/07 03:27:15;;;;;;;4.20;2.90;;;;;;;;;;5062762;28;20399;-76
2022/08/07 03:29:50;;;;;;;5.28;2.83;;;;;;;;;;5063964;28;20094;-75
2022/08/07 03:32:20;;;;;;;4.30;3.03;;;;;;;;;;5060982;28;20066;-76
2022/08/07 03:34:48;;;;;;;4.65;2.88;;;;;;;;;;5061157;28;20032;-76
2022/08/07 03:37:16;;;;;;;4.10;2.90;;;;;;;;;;5064857;28;20033;-75
2022/08/07 03:39:42;;;;;;;4.03;2.60;;;;;;;;;;5058539;28;20025;-81
2022/08/07 03:42:09;;;;;;;5.30;3.15;;;;;;;;;;5059533;28;20035;-75
2022/08/07 03:44:36;;;;;;;4.18;3.10;;;;;;;;;;5054611;28;20115;-76
2022/08/07 03:47:03;;;;;;;6.38;3.08;;;;;;;;;;5055915;28;20539;-80
2022/08/07 03:49:29;;;;;;;4.38;2.90;;;;;;;;;;5059136;28;20230;-77
2022/08/07 03:51:56;;;;;;;4.57;2.67;;;;;;;;;;5056910;28;20032;-82
2022/08/07 03:54:21;;;;;;;4.72;2.95;;;;;;;;;;5063326;28;20078;-75
2022/08/07 03:56:48;;;;;;;5.38;3.30;;;;;;;;;;5060910;28;21146;-79
2022/08/07 03:59:14;;;;;;;4.55;2.85;;;;;;;;;;5058573;28;20115;-75
2022/08/07 04:01:42;;;;;;;4.40;3.20;;;;;;;;;;5064172;28;20032;-75
2022/08/07 04:04:08;;;;;;;4.38;3.20;;;;;;;;;;5065490;28;20029;-81
2022/08/07 04:06:35;;;;;;;5.45;3.28;;;;;;;;;;5076049;28;20420;-80
2022/08/07 04:09:01;;;;;;;4.72;2.78;;;;;;;;;;5065453;28;20025;-81
2022/08/07 04:11:27;;;;;;;4.95;3.35;;;;;;;;;;5071260;28;20123;-79
2022/08/07 04:13:54;;;;;;;5.15;3.13;;;;;;;;;;5067021;28;20442;-79
2022/08/07 04:16:21;;;;;;;5.38;3.40;;;;;;;;;;5065936;28;20024;-75
2022/08/07 04:18:46;;;;;;;4.18;2.90;;;;;;;;;;5064519;28;20020;-75
2022/08/07 04:21:12;;;;;;;4.00;2.90;;;;;;;;;;5058484;28;20025;-74
2022/08/07 04:23:38;;;;;;;4.85;3.03;;;;;;;;;;5061902;28;20029;-81
2022/08/07 04:26:06;;;;;;;4.55;3.00;;;;;;;;;;5056755;28;20388;-81
2022/08/07 04:28:32;;;;;;;5.03;2.97;;;;;;;;;;5067547;28;20032;-75
2022/08/07 04:30:57;;;;;;;4.88;3.13;;;;;;;;;;5066858;28;20062;-81
2022/08/07 04:33:24;;;;;;;4.07;2.75;;;;;;;;;;5064536;28;20045;-78
2022/08/07 04:35:50;;;;;;;6.38;3.00;;;;;;;;;;5056665;28;20435;-74
2022/08/07 04:38:15;;;;;;;3.85;2.80;;;;;;;;;;5062023;28;20030;-75
2022/08/07 04:40:43;;;;;;;5.45;2.92;;;;;;;;;;5061530;28;20036;-75
2022/08/07 04:43:08;;;;;;;4.38;3.00;;;;;;;;;;5060338;28;20489;-74
2022/08/07 04:46:05;;;;;;;5.22;3.63;;;;;;;;;;5060680;28;20111;-75
2022/08/07 04:48:38;;;;;;;6.75;2.90;;;;;;;;;;5057356;28;20106;-78
2022/08/07 04:51:09;;;;;;;5.43;3.35;;;;;;;;;;5059913;28;20040;-74
2022/08/07 04:54:06;;;;;;;4.47;3.00;;;;;;;;;;5057487;28;20111;-81
2022/08/07 04:56:52;;;;;;;4.63;2.83;;;;;;;;;;5052894;28;20044;-77
2022/08/07 04:59:56;;;;;;;5.35;2.95;;;;;;;;;;5062949;28;20032;-80
2022/08/07 05:02:28;;;;;;;6.30;3.42;;;;;;;;;;5053637;28;20028;-77
2022/08/07 05:05:15;;;;;;;4.80;3.23;;;;;;;;;;5064959;28;20031;-78
2022/08/07 05:08:00;;;;;;;4.82;3.30;;;;;;;;;;5059153;28;20031;-79
2022/08/07 05:10:37;;;;;;;4.53;3.20;;;;;;;;;;5056437;28;20032;-79
2022/08/07 05:13:08;;;;;;;5.32;3.53;;;;;;;;;;5058727;28;20484;-75
2022/08/07 05:15:40;;;;;;;6.13;3.38;;;;;;;;;;5062575;28;20380;-78
2022/08/07 05:18:15;;;;;;;4.95;3.53;;;;;;;;;;5055690;28;20025;-81
2022/08/07 05:20:44;;;;;;;5.45;3.50;;;;;;;;;;5054064;28;20028;-75
2022/08/07 05:23:18;;;;;;;4.88;3.60;;;;;;;;;;5058004;28;20133;-79
2022/08/07 05:25:45;;;;;;;5.20;3.30;;;;;;;;;;5058455;28;20040;-75
2022/08/07 05:28:13;;;;;;;4.75;3.53;;;;;;;;;;5060946;28;20025;-75
2022/08/07 05:30:40;;;;;;;4.85;3.30;;;;;;;;;;5059202;28;20025;-75
2022/08/07 05:33:06;;;;;;;6.60;3.35;;;;;;;;;;5061120;28;22445;-75
2022/08/07 05:35:33;;;;;;;8.00;3.83;;;;;;;;;;5061924;28;20109;-78
2022/08/07 05:37:59;;;;;;;4.95;3.47;;;;;;;;;;5059304;28;20199;-82
2022/08/07 05:40:25;;;;;;;5.57;3.65;;;;;;;;;;5057645;28;20032;-78
2022/08/07 05:42:51;;;;;;;4.38;3.22;;;;;;;;;;5061259;28;20640;-79
2022/08/07 05:45:18;;;;;;;8.32;3.80;;;;;;;;;;5061099;28;21220;-77
2022/08/07 05:47:44;;;;;;;6.75;3.78;;;;;;;;;;5057708;28;20388;-81
2022/08/07 05:50:09;;;;;;;5.40;3.67;;;;;;;;;;5061193;28;20024;-74
2022/08/07 05:52:35;;;;;;;6.10;3.53;;;;;;;;;;5061147;28;20029;-79
2022/08/07 05:55:01;;;;;;;5.47;3.67;;;;;;;;;;5060257;28;20028;-81
2022/08/07 05:57:27;;;;;;;5.35;3.88;;;;;;;;;;5056874;28;20028;-76
2022/08/07 05:59:54;;;;;;;5.43;3.58;;;;;;;;;;5062343;28;20021;-76
2022/08/07 06:02:20;;;;;;;6.20;4.05;;;;;;;;;;5056660;28;20036;-75
2022/08/07 06:04:51;;;;;;;7.30;4.00;;;;;;;;;;5064952;28;20028;-74
2022/08/07 06:07:17;;;;;;;6.22;4.28;;;;;;;;;;5063039;28;20459;-75
2022/08/07 06:09:43;;;;;;;6.07;3.85;;;;;;;;;;5064082;28;20358;-80
2022/08/07 06:12:10;;;;;;;6.28;4.65;;;;;;;;;;5064044;28;20427;-76
2022/08/07 06:14:35;;;;;;;5.82;4.00;;;;;;;;;;5063582;28;20086;-75
2022/08/07 06:17:02;;;;;;;6.93;4.22;;;;;;;;;;5063182;28;20094;-75
2022/08/07 06:19:28;;;;;;;7.97;4.18;;;;;;;;;;5059037;28;20378;-75
2022/08/07 06:21:54;;;;;;;6.95;4.53;;;;;;;;;;5064465;28;20481;-76
2022/08/07 06:24:20;;;;;;;8.40;4.15;;;;;;;;;;5061323;28;20025;-76
2022/08/07 06:26:45;;;;;;;7.00;4.47;;;;;;;;;;5060462;28;20618;-80
2022/08/07 06:29:11;;;;;;;6.85;4.20;;;;;;;;;;5066510;28;20024;-82
2022/08/07 06:31:36;;;;;;;6.40;4.03;;;;;;;;;;5066181;28;20392;-77
2022/08/07 06:34:02;;;;;;;6.72;4.15;;;;;;;;;;5063368;28;20025;-80
2022/08/07 06:36:27;;;;;;;7.47;4.38;;;;;;;;;;5065971;28;20029;-76
2022/08/07 06:38:53;;;;;;;6.13;3.90;;;;;;;;;;5061866;28;20024;-82
2022/08/07 06:41:25;;;;;;;8.43;4.70;;;;;;;;;;5063310;28;20032;-76
2022/08/07 06:43:53;;;;;;;6.97;4.60;;;;;;;;;;5055268;28;20503;-74
2022/08/07 06:46:19;;;;;;;7.07;4.40;;;;;;;;;;5056037;28;20780;-77
2022/08/07 06:48:45;;;;;;;5.85;4.07;;;;;;;;;;5055392;28;20102;-78
2022/08/07 06:51:16;;;;;;;6.50;4.68;;;;;;;;;;5057080;28;20055;-77
2022/08/07 06:53:43;;;;;;;8.35;4.80;;;;;;;;;;5054315;28;20370;-76
2022/08/07 06:56:11;;;;;;;6.53;4.40;;;;;;;;;;5057210;28;20024;-76
2022/08/07 06:58:38;;;;;;;8.90;4.50;;;;;;;;;;5058994;28;20039;-81
2022/08/07 07:01:09;;;;;;;6.32;4.57;;;;;;;;;;5056972;28;20175;-81
2022/08/07 07:03:39;;;;;;;7.75;4.38;;;;;;;;;;5055872;28;20070;-82
2022/08/07 07:06:06;;;;;;;7.38;4.68;;;;;;;;;;5061014;28;20025;-81
2022/08/07 07:08:32;;;;;;;7.63;4.88;;;;;;;;;;5062537;28;20473;-78
2022/08/07 07:10:57;;;;;;;7.72;4.63;;;;;;;;;;5065761;28;20028;-79
2022/08/07 07:13:28;;;;;;;7.78;4.90;;;;;;;;;;5064449;28;20066;-76
2022/08/07 07:16:06;;;;;;;7.18;4.85;;;;;;;;;;5065107;28;20028;-76
2022/08/07 07:18:39;;;;;;;8.52;4.97;;;;;;;;;;5062949;28;21249;-75
2022/08/07 07:21:11;;;;;;;6.80;4.40;;;;;;;;;;5068156;28;20032;-75
2022/08/07 07:23:37;;;;;;;7.60;4.93;;;;;;;;;;5065674;28;20029;-75
2022/08/07 07:26:05;;;;;;;6.70;4.20;;;;;;;;;;5068583;28;20031;-82
2022/08/07 07:28:39;;;;;;;7.45;4.28;;;;;;;;;;5065755;28;20063;-76
2022/08/07 07:31:28;;;;;;;8.15;4.82;;;;;;;;;;5060782;28;20032;-76
2022/08/07 07:33:56;;;;;;;5.93;4.15;;;;;;;;;;5066125;28;20044;-81
2022/08/07 07:36:24;;;;;;;7.18;4.50;;;;;;;;;;5064365;28;20573;-80
2022/08/07 07:38:50;;;;;;;6.90;4.40;;;;;;;;;;5062767;28;20484;-81
2022/08/07 07:41:17;;;;;;;7.60;4.25;;;;;;;;;;5057995;28;20020;-77
2022/08/07 07:43:44;;;;;;;6.32;4.13;;;;;;;;;;5056928;28;20070;-76
2022/08/07 07:46:11;;;;;;;6.40;4.10;;;;;;;;;;5059481;28;20037;-75
2022/08/07 07:48:38;;;;;;;6.85;4.10;;;;;;;;;;5061654;28;20115;-82
2022/08/07 07:51:05;;;;;;;6.47;4.07;;;;;;;;;;5063841;28;20051;-77
2022/08/07 07:53:31;;;;;;;6.35;4.25;;;;;;;;;;5065987;28;20451;-76
2022/08/07 07:55:58;;;;;;;6.00;4.43;;;;;;;;;;5054615;28;20032;-76
2022/08/07 07:58:34;;;;;;;6.95;4.63;;;;;;;;;;5058825;28;20032;-79
2022/08/07 08:01:00;;;;;;;6.75;4.60;;;;;;;;;;5062270;28;20408;-79
2022/08/07 08:03:29;;;;;;;6.57;4.30;;;;;;;;;;5062275;28;20058;-76
2022/08/07 08:05:54;;;;;;;6.55;4.18;;;;;;;;;;5061741;28;20039;-78
2022/08/07 08:08:23;;;;;;;7.55;4.30;;;;;;;;;;5063371;28;20036;-79
2022/08/07 08:10:50;;;;;;;10.90;4.30;;;;;;;;;;5060462;28;20029;-80
2022/08/07 08:13:16;;;;;;;8.07;4.35;;;;;;;;;;5057576;28;20105;-80
2022/08/07 08:15:45;;;;;;;6.53;4.38;;;;;;;;;;5057660;28;20036;-78
2022/08/07 08:18:10;;;;;;;6.07;3.95;;;;;;;;;;5058419;28;20035;-75
2022/08/07 08:20:38;;;;;;;6.07;3.47;;;;;;;;;;5066259;28;20028;-82
2022/08/07 08:28:40;;;;;;;6.03;3.50;;;;;;;;;;5059843;28;20064;-76
2022/08/07 08:31:09;;;;;;;7.03;3.53;;;;;;;;;;5065136;28;20369;-76
2022/08/07 08:33:36;;;;;;;4.80;3.25;;;;;;;;;;5065430;28;20082;-80
2022/08/07 08:36:02;;;;;;;6.20;3.80;;;;;;;;;;5066801;28;20025;-80
2022/08/07 08:38:34;;;;;;;5.47;3.35;;;;;;;;;;5063502;28;20063;-78
2022/08/07 08:41:11;;;;;;;4.70;3.10;;;;;;;;;;5061505;28;20047;-76
2022/08/07 08:43:50;;;;;;;5.72;3.00;;;;;;;;;;5073785;28;20390;-82
2022/08/07 08:46:59;;;;;;;5.57;2.80;;;;;;;;;;5065326;28;20025;-79
2022/08/07 08:49:35;;;;;;;5.95;2.92;;;;;;;;;;5032985;28;20044;-80
2022/08/07 08:52:32;;;;;;;6.00;3.08;;;;;;;;;;5059690;28;20044;-76
2022/08/07 08:55:31;;;;;;;4.57;2.88;;;;;;;;;;5061597;28;20020;-76
2022/08/07 08:58:25;;;;;;;4.55;2.80;;;;;;;;;;5061562;28;20028;-76
2022/08/07 09:01:12;;;;;;;4.10;2.53;;;;;;;;;;5061655;28;20021;-81
2022/08/07 09:03:55;;;;;;;4.72;2.65;;;;;;;;;;5068211;28;21308;-76
2022/08/07 09:06:48;;;;;;;4.00;2.30;;;;;;;;;;5064167;28;20020;-76
2022/08/07 09:09:46;;;;;;;4.25;2.47;;;;;;;;;;5051614;28;20031;-73
2022/08/07 09:12:31;;;;;;;4.65;2.60;;;;;;;;;;5061855;28;20078;-75
2022/08/07 09:15:22;;;;;;;4.32;2.50;;;;;;;;;;5064400;28;20024;-74
2022/08/07 09:17:55;;;;;;;4.43;2.85;;;;;;;;;;5065594;28;20111;-74
2022/08/07 09:20:28;;;;;;;;;;;;;;;;;;5068336;28;20021;-80
2022/08/07 09:23:25;;;;;;;4.93;2.35;;;;;;;;;;5070804;28;19920;-80
2022/08/07 09:26:20;;;;;;;4.38;2.30;;;;;;;;;;5066491;28;20044;-75
2022/08/07 09:28:52;;;;;;;3.22;2.00;;;;;;;;;;5066952;28;20435;-79
2022/08/07 09:31:40;;;;;;;3.28;2.22;;;;;;;;;;5065424;28;20025;-73
2022/08/07 09:34:15;;;;;;;3.83;1.98;;;;;;;;;;5064626;28;20044;-73
2022/08/07 09:36:53;;;;;;;3.80;2.00;;;;;;;;;;5062808;28;20028;-73
2022/08/07 09:39:21;;;;;;;4.32;2.30;;;;;;;;;;5069152;28;20147;-74
2022/08/07 09:42:06;;;;;;;5.20;2.22;;;;;;;;;;5069523;28;20388;-73
2022/08/07 09:45:01;;;;;;;3.78;1.95;;;;;;;;;;5067065;28;20025;-72
2022/08/07 09:47:43;;;;;;;2.80;1.63;;;;;;;;;;5071054;28;20095;-80
2022/08/07 09:50:28;;;;;;;4.38;1.95;;;;;;;;;;5069844;28;20025;-80
2022/08/07 09:53:00;;;;;;;3.75;1.83;;;;;;;;;;5068122;28;20047;-73
2022/08/07 09:55:38;;;;;;;3.25;1.73;;;;;;;;;;5069842;28;20533;-73
2022/08/07 09:58:28;;;;;;;4.53;1.50;;;;;;;;;;5070219;28;20472;-73
2022/08/07 10:01:19;;;;;;;3.40;1.65;;;;;;;;;;5070789;28;20027;-73
2022/08/07 10:04:05;;;;;;;3.35;1.73;;;;;;;;;;5063575;28;20086;-81
2022/08/07 10:06:51;;;;;;;2.70;1.50;;;;;;;;;;5071276;28;20407;-75
2022/08/07 10:09:49;;;;;;;3.40;1.58;;;;;;;;;;5066730;28;20028;-79
2022/08/07 10:12:39;;;;;;;2.75;1.70;;;;;;;;;;5070380;28;20074;-74
2022/08/07 10:15:28;;;;;;;2.78;1.67;;;;;;;;;;5072494;28;20115;-80
2022/08/07 10:18:07;;;;;;;4.45;2.00;;;;;;;;;;5065014;28;20055;-79
2022/08/07 10:21:05;;;;;;;1.98;1.30;;;;;;;;;;5065724;28;20033;-74
2022/08/07 10:23:30;;;;;;;3.42;1.38;;;;;;;;;;5066236;28;20507;-75
2022/08/07 10:26:05;;;;;;;2.92;1.50;;;;;;;;;;5071492;28;20103;-80
2022/08/07 10:29:03;;;;;;;2.45;1.75;;;;;;;;;;5076336;28;20024;-73
2022/08/07 10:31:55;;;;;;;3.03;1.77;;;;;;;;;;5072132;28;20035;-74
2022/08/07 10:34:53;;;;;;;2.63;1.70;;;;;;;;;;5068013;28;20488;-77
2022/08/07 10:37:44;;;;;;;2.58;1.52;;;;;;;;;;5030256;28;20062;-74
2022/08/07 10:40:34;;;;;;;2.38;1.40;;;;;;;;;;5074060;28;20093;-74
2022/08/07 10:43:01;;;;;;;3.72;1.45;;;;;;;;;;5060025;28;20028;-77
2022/08/07 10:45:32;;;;;;;4.32;2.45;;;;;;;;;;5068174;28;20028;-73
2022/08/07 10:48:28;;;;;;;2.88;1.38;;;;;;;;;;5071366;28;20033;-73
2022/08/07 10:51:05;;;;;;;3.67;1.70;;;;;;;;;;5065823;28;20544;-77
2022/08/07 10:53:41;;;;;;;2.75;1.42;;;;;;;;;;5065492;28;20100;-81
2022/08/07 10:56:26;;;;;;;4.07;1.45;;;;;;;;;;5066302;28;20099;-74
2022/08/07 10:59:19;;;;;;;2.63;1.50;;;;;;;;;;5070352;28;20447;-73
2022/08/07 11:01:52;;;;;;;2.80;1.70;;;;;;;;;;5076805;28;20028;-73
2022/08/07 11:04:35;;;;;;;2.88;1.67;;;;;;;;;;5072563;28;20244;-76
2022/08/07 11:07:20;;;;;;;3.42;1.50;;;;;;;;;;5065169;28;20025;-76
2022/08/07 11:09:51;;;;;;;3.80;1.52;;;;;;;;;;5067502;28;20035;-76
2022/08/07 11:12:22;;;;;;;2.40;1.55;;;;;;;;;;5068886;28;20051;-78
2022/08/07 11:14:54;;;;;;;3.00;1.40;;;;;;;;;;5072710;28;20031;-74
2022/08/07 11:17:40;;;;;;;2.05;1.33;;;;;;;;;;5069809;28;20020;-75
2022/08/07 11:20:20;;;;;;;3.53;1.50;;;;;;;;;;5062140;28;20040;-79
2022/08/07 11:23:06;;;;;;;2.55;1.50;;;;;;;;;;5073082;28;20032;-74
2022/08/07 11:25:39;;;;;;;2.20;1.35;;;;;;;;;;5067741;28;20071;-80
2022/08/07 11:28:18;;;;;;;2.38;1.50;;;;;;;;;;5081731;28;20043;-77
2022/08/07 11:31:00;;;;;;;3.03;1.60;;;;;;;;;;5065326;28;20045;-74
2022/08/07 11:33:29;;;;;;;;;;;;;;;;;;5071977;28;20059;-81
2022/08/07 11:36:12;;;;;;;3.65;1.58;;;;;;;;;;5066857;28;19912;-76
2022/08/07 11:39:01;;;;;;;;;;;;;;;;;;5062657;28;20028;-74
2022/08/07 11:41:38;;;;;;;2.78;1.40;;;;;;;;;;5070480;28;19924;-79
2022/08/07 11:44:17;;;;;;;3.42;1.65;;;;;;;;;;5066125;28;20020;-78
2022/08/07 11:47:03;;;;;;;3.25;1.50;;;;;;;;;;5069704;28;20028;-75
2022/08/07 11:49:59;;;;;;;3.92;1.67;;;;;;;;;;5065100;28;20488;-74
2022/08/07 11:52:38;;;;;;;3.20;1.38;;;;;;;;;;5068278;28;20475;-74
2022/08/07 11:55:04;;;;;;;2.05;1.42;;;;;;;;;;5069189;28;20503;-74
2022/08/07 11:57:51;;;;;;;3.35;1.58;;;;;;;;;;5059959;28;20040;-74
2022/08/07 12:00:30;;;;;;;2.95;1.50;;;;;;;;;;5062574;28;20484;-76
2022/08/07 12:03:04;;;;;;;4.13;1.90;;;;;;;;;;5060202;28;20024;-74
2022/08/07 12:05:46;;;;;;;2.85;1.60;;;;;;;;;;5056334;28;22377;-75
2022/08/07 12:08:23;;;;;;;2.25;1.50;;;;;;;;;;5062166;28;20087;-76
2022/08/07 12:11:06;;;;;;;2.00;1.30;;;;;;;;;;5060624;28;20365;-74
2022/08/07 12:14:00;;;;;;;3.15;1.30;;;;;;;;;;5065528;28;20485;-76
2022/08/07 12:16:34;;;;;;;1.95;1.27;;;;;;;;;;5070455;28;20032;-74
2022/08/07 12:19:12;;;;;;;4.30;1.63;;;;;;;;;;5070665;28;20025;-76
2022/08/07 12:22:01;;;;;;;4.35;1.40;;;;;;;;;;5072750;28;20116;-73
2022/08/07 12:24:30;;;;;;;2.40;1.65;;;;;;;;;;5062095;28;20077;-73
2022/08/07 12:27:02;;;;;;;3.20;1.60;;;;;;;;;;5073927;28;20028;-74
2022/08/07 12:29:45;;;;;;;3.20;1.50;;;;;;;;;;5068952;28;20408;-74
2022/08/07 12:32:26;;;;;;;2.88;1.52;;;;;;;;;;5070128;28;20109;-76
2022/08/07 12:34:53;;;;;;;2.78;1.30;;;;;;;;;;5063870;28;20102;-73
2022/08/07 12:37:20;;;;;;;2.85;1.38;;;;;;;;;;5070899;28;20067;-74
2022/08/07 12:39:48;;;;;;;2.97;1.40;;;;;;;;;;5071438;28;20112;-75
2022/08/07 12:42:18;;;;;;;2.50;1.30;;;;;;;;;;5072146;28;20066;-75
2022/08/07 12:44:47;;;;;;;2.05;1.30;;;;;;;;;;5071400;28;20021;-74
2022/08/07 12:47:31;;;;;;;2.10;1.30;;;;;;;;;;5072159;28;20056;-74
2022/08/07 12:50:15;;;;;;;2.10;1.30;;;;;;;;;;5067977;28;20016;-78
2022/08/07 12:53:06;;;;;;;1.83;1.10;;;;;;;;;;5078684;28;20032;-76
2022/08/07 12:55:39;;;;;;;2.75;1.20;;;;;;;;;;5071496;28;20032;-73
2022/08/07 12:58:05;;;;;;;;;;;;;;;;;;5072816;28;20089;-74
2022/08/07 13:01:06;;;;;;;2.80;1.40;;;;;;;;;;5062216;28;19912;-76
2022/08/07 13:04:28;;;;;;;2.53;1.30;;;;;;;;;;5062738;28;20047;-76
2022/08/07 13:07:29;;;;;;;2.42;1.30;;;;;;;;;;5028221;28;20115;-77
2022/08/07 13:10:12;;;;;;;1.80;1.10;;;;;;;;;;5022885;28;20056;-76
2022/08/07 13:12:50;;;;;;;2.00;1.17;;;;;;;;;;5060412;28;20036;-74
2022/08/07 13:15:34;;;;;;;2.17;1.17;;;;;;;;;;5075280;28;20056;-76
2022/08/07 13:18:17;;;;;;;1.20;0.88;;;;;;;;;;5068933;28;20469;-76
2022/08/07 13:20:45;;;;;;;1.83;1.20;;;;;;;;;;5073566;28;20484;-76
2022/08/07 13:23:19;;;;;;;2.75;1.40;;;;;;;;;;5085656;28;20440;-73
2022/08/07 13:26:00;;;;;;;1.83;1.20;;;;;;;;;;5074957;28;20021;-75
2022/08/07 13:28:45;;;;;;;1.52;1.05;;;;;;;;;;5072031;28;20071;-77
2022/08/07 13:31:23;;;;;;;1.83;1.20;;;;;;;;;;5074012;28;20020;-74
2022/08/07 13:34:01;;;;;;;2.17;1.20;;;;;;;;;;5067133;28;20055;-76
2022/08/07 13:36:47;;;;;;;3.70;1.65;;;;;;;;;;5074748;28;20056;-76
2022/08/07 13:39:31;;;;;;;1.60;1.10;;;;;;;;;;5065092;28;20124;-75
2022/08/07 13:41:59;;;;;;;1.67;1.10;;;;;;;;;;5068333;28;20059;-77
2022/08/07 13:44:29;;;;;;;2.00;1.10;;;;;;;;;;5075499;28;20028;-74
2022/08/07 13:46:58;;;;;;;2.10;1.08;;;;;;;;;;5075823;28;20574;-74
2022/08/07 13:49:29;;;;;;;1.73;1.00;;;;;;;;;;5075639;28;20024;-74
2022/08/07 13:51:55;;;;;;;1.83;1.13;;;;;;;;;;5074203;28;20411;-77
2022/08/07 13:54:29;;;;;;;1.77;1.10;;;;;;;;;;5077523;28;20652;-74
2022/08/07 13:56:57;;;;;;;1.63;1.13;;;;;;;;;;5075631;28;20060;-74
2022/08/07 13:59:33;;;;;;;2.13;1.20;;;;;;;;;;5063970;28;20025;-74
2022/08/07 14:02:07;;;;;;;2.22;1.45;;;;;;;;;;5075006;28;20024;-76
2022/08/07 14:04:45;;;;;;;2.00;1.20;;;;;;;;;;5074040;28;20085;-75
2022/08/07 14:07:12;;;;;;;2.10;1.23;;;;;;;;;;5075654;28;20086;-73
2022/08/07 14:09:39;;;;;;;1.80;1.10;;;;;;;;;;5076406;28;20029;-75
2022/08/07 14:12:08;;;;;;;2.00;1.20;;;;;;;;;;5072760;28;20480;-73
2022/08/07 14:14:50;;;;;;;2.15;1.10;;;;;;;;;;5072383;28;20017;-77
2022/08/07 14:17:17;;;;;;;2.63;1.00;;;;;;;;;;5074386;28;20488;-76
2022/08/07 14:19:56;;;;;;;3.08;1.45;;;;;;;;;;5074463;28;20420;-74
2022/08/07 14:22:27;;;;;;;2.13;1.35;;;;;;;;;;5076840;28;20059;-73
2022/08/07 14:24:59;;;;;;;3.33;1.17;;;;;;;;;;5069985;28;20035;-73
2022/08/07 14:27:45;;;;;;;2.22;1.50;;;;;;;;;;5073367;28;20499;-73
2022/08/07 14:30:13;;;;;;;2.08;1.30;;;;;;;;;;5074133;28;20054;-76
2022/08/07 14:32:54;;;;;;;1.65;1.17;;;;;;;;;;5074808;28;20507;-75
2022/08/07 14:35:25;;;;;;;1.70;1.00;;;;;;;;;;5072251;28;20028;-75
2022/08/07 14:37:54;;;;;;;2.08;1.10;;;;;;;;;;5073814;28;20118;-75
2022/08/07 14:40:22;;;;;;;2.58;1.10;;;;;;;;;;5074645;28;20029;-74
2022/08/07 14:43:13;;;;;;;3.30;1.25;;;;;;;;;;5070805;28;20081;-76
2022/08/07 14:45:46;;;;;;;1.88;1.30;;;;;;;;;;5073507;28;20068;-77
2022/08/07 14:48:15;;;;;;;2.97;1.30;;;;;;;;;;5073125;28;20107;-73
2022/08/07 14:50:44;;;;;;;3.13;1.30;;;;;;;;;;5063466;28;20205;-73
2022/08/07 14:53:10;;;;;;;1.90;1.17;;;;;;;;;;5067270;28;20078;-76
2022/08/07 14:55:38;;;;;;;2.00;1.30;;;;;;;;;;5063523;28;20025;-74
2022/08/07 14:58:05;;;;;;;1.30;1.00;;;;;;;;;;5067021;28;20031;-74
2022/08/07 15:00:33;;;;;;;2.70;1.33;;;;;;;;;;5074020;28;20086;-74
2022/08/07 15:03:03;;;;;;;2.17;1.30;;;;;;;;;;5056062;28;20032;-76
2022/08/07 15:05:29;;;;;;;1.55;1.10;;;;;;;;;;5071776;28;20117;-78
2022/08/07 15:07:56;;;;;;;2.15;1.30;;;;;;;;;;5069812;28;20024;-74
2022/08/07 15:10:24;;;;;;;1.88;1.20;;;;;;;;;;5068443;28;20038;-77
2022/08/07 15:12:53;;;;;;;2.55;1.40;;;;;;;;;;5068501;28;20020;-74
2022/08/07 15:15:35;;;;;;;1.95;1.30;;;;;;;;;;5069393;28;20040;-79
2022/08/07 15:18:07;;;;;;;2.13;1.10;;;;;;;;;;5065618;28;20119;-75
2022/08/07 15:20:36;;;;;;;3.67;1.20;;;;;;;;;;5063389;28;20094;-73
2022/08/07 15:23:05;;;;;;;2.00;1.10;;;;;;;;;;5059288;28;20078;-74